sensor_id;sensor_type;location;lat;lon;timestamp;P1;durP1;ratioP1;P2;durP2;ratioP2
66741;SDS011;53654;54.152;19.432;2023-09-19T00:00:48;16.40;;;15.10;;
66741;SDS011;53654;54.152;19.432;2023-09-19T00:03:36;16.90;;;15.60;;
66741;SDS011;53654;54.152;19.432;2023-09-19T00:06:09;16.50;;;15.30;;
66741;SDS011;53654;54.152;19.432;2023-09-19T00:08:38;17.00;;;15.60;;
66741;SDS011;53654;54.152;19.432;2023-09-19T00:11:07;16.40;;;15.00;;
66741;SDS011;53654;54.152;19.432;2023-09-19T00:13:36;16.50;;;15.00;;
66741;SDS011;53654;54.152;19.432;2023-09-19T00:16:08;16.80;;;15.50;;
66741;SDS011;53654;54.152;19.432;2023-09-19T00:18:42;16.90;;;15.50;;
66741;SDS011;53654;54.152;19.432;2023-09-19T00:21:10;16.60;;;15.30;;
66741;SDS011;53654;54.152;19.432;2023-09-19T00:23:39;15.90;;;14.70;;
66741;SDS011;53654;54.152;19.432;2023-09-19T00:26:08;16.00;;;14.80;;
66741;SDS011;53654;54.152;19.432;2023-09-19T00:28:37;16.60;;;15.30;;
66741;SDS011;53654;54.152;19.432;2023-09-19T00:31:07;16.80;;;15.50;;
66741;SDS011;53654;54.152;19.432;2023-09-19T00:33:36;15.90;;;14.70;;
66741;SDS011;53654;54.152;19.432;2023-09-19T00:36:05;16.70;;;15.40;;
66741;SDS011;53654;54.152;19.432;2023-09-19T00:38:33;16.80;;;15.40;;
66741;SDS011;53654;54.152;19.432;2023-09-19T00:41:02;16.60;;;15.30;;
66741;SDS011;53654;54.152;19.432;2023-09-19T00:43:30;16.80;;;15.50;;
66741;SDS011;53654;54.152;19.432;2023-09-19T00:46:03;16.20;;;14.90;;
66741;SDS011;53654;54.152;19.432;2023-09-19T00:48:38;17.10;;;15.70;;
66741;SDS011;53654;54.152;19.432;2023-09-19T00:51:09;16.90;;;15.60;;
66741;SDS011;53654;54.152;19.432;2023-09-19T00:53:38;17.70;;;16.20;;
66741;SDS011;53654;54.152;19.432;2023-09-19T00:56:07;17.10;;;15.70;;
66741;SDS011;53654;54.152;19.432;2023-09-19T00:58:35;17.20;;;15.80;;
66741;SDS011;53654;54.152;19.432;2023-09-19T01:01:05;17.20;;;15.70;;
66741;SDS011;53654;54.152;19.432;2023-09-19T01:03:36;17.20;;;15.80;;
66741;SDS011;53654;54.152;19.432;2023-09-19T01:06:06;17.00;;;15.50;;
66741;SDS011;53654;54.152;19.432;2023-09-19T01:08:36;17.70;;;16.20;;
66741;SDS011;53654;54.152;19.432;2023-09-19T01:14:03;17.30;;;15.80;;
66741;SDS011;53654;54.152;19.432;2023-09-19T01:16:42;17.80;;;16.40;;
66741;SDS011;53654;54.152;19.432;2023-09-19T01:30:58;18.40;;;16.80;;
66741;SDS011;53654;54.152;19.432;2023-09-19T01:36:36;18.00;;;16.40;;
66741;SDS011;53654;54.152;19.432;2023-09-19T01:39:08;17.10;;;15.80;;
66741;SDS011;53654;54.152;19.432;2023-09-19T01:44:44;18.00;;;16.60;;
66741;SDS011;53654;54.152;19.432;2023-09-19T01:47:34;18.30;;;16.70;;
66741;SDS011;53654;54.152;19.432;2023-09-19T01:50:42;18.10;;;16.80;;
66741;SDS011;53654;54.152;19.432;2023-09-19T01:53:51;19.10;;;17.50;;
66741;SDS011;53654;54.152;19.432;2023-09-19T01:56:59;18.80;;;17.10;;
66741;SDS011;53654;54.152;19.432;2023-09-19T01:59:13;19.00;;;17.50;;
66741;SDS011;53654;54.152;19.432;2023-09-19T02:01:49;18.20;;;16.90;;
66741;SDS011;53654;54.152;19.432;2023-09-19T02:04:20;18.70;;;17.30;;
66741;SDS011;53654;54.152;19.432;2023-09-19T02:06:48;18.70;;;17.30;;
66741;SDS011;53654;54.152;19.432;2023-09-19T02:09:16;18.80;;;17.40;;
66741;SDS011;53654;54.152;19.432;2023-09-19T02:11:45;19.40;;;17.80;;
66741;SDS011;53654;54.152;19.432;2023-09-19T02:14:14;19.70;;;18.00;;
66741;SDS011;53654;54.152;19.432;2023-09-19T02:16:42;19.10;;;17.50;;
66741;SDS011;53654;54.152;19.432;2023-09-19T02:19:11;19.50;;;17.90;;
66741;SDS011;53654;54.152;19.432;2023-09-19T02:21:39;19.60;;;18.10;;
66741;SDS011;53654;54.152;19.432;2023-09-19T02:24:08;18.80;;;17.20;;
66741;SDS011;53654;54.152;19.432;2023-09-19T02:26:36;21.00;;;19.20;;
66741;SDS011;53654;54.152;19.432;2023-09-19T02:29:06;19.30;;;17.70;;
66741;SDS011;53654;54.152;19.432;2023-09-19T02:31:36;19.50;;;17.80;;
66741;SDS011;53654;54.152;19.432;2023-09-19T02:34:04;18.50;;;17.00;;
66741;SDS011;53654;54.152;19.432;2023-09-19T02:36:34;19.70;;;18.00;;
66741;SDS011;53654;54.152;19.432;2023-09-19T02:39:03;20.00;;;18.50;;
66741;SDS011;53654;54.152;19.432;2023-09-19T02:41:34;19.40;;;17.80;;
66741;SDS011;53654;54.152;19.432;2023-09-19T02:44:02;20.20;;;18.50;;
66741;SDS011;53654;54.152;19.432;2023-09-19T02:46:30;19.80;;;18.20;;
66741;SDS011;53654;54.152;19.432;2023-09-19T02:48:58;19.80;;;18.20;;
66741;SDS011;53654;54.152;19.432;2023-09-19T02:51:26;19.90;;;18.40;;
66741;SDS011;53654;54.152;19.432;2023-09-19T02:53:54;20.50;;;18.90;;
66741;SDS011;53654;54.152;19.432;2023-09-19T02:56:22;19.50;;;18.00;;
66741;SDS011;53654;54.152;19.432;2023-09-19T02:58:53;19.60;;;18.10;;
66741;SDS011;53654;54.152;19.432;2023-09-19T03:01:23;20.30;;;18.60;;
66741;SDS011;53654;54.152;19.432;2023-09-19T03:03:51;19.90;;;18.30;;
66741;SDS011;53654;54.152;19.432;2023-09-19T03:06:21;20.10;;;18.50;;
66741;SDS011;53654;54.152;19.432;2023-09-19T03:08:50;20.60;;;18.90;;
66741;SDS011;53654;54.152;19.432;2023-09-19T03:11:20;19.70;;;18.10;;
66741;SDS011;53654;54.152;19.432;2023-09-19T03:13:52;20.30;;;18.60;;
66741;SDS011;53654;54.152;19.432;2023-09-19T03:16:22;20.40;;;18.70;;
66741;SDS011;53654;54.152;19.432;2023-09-19T03:18:52;20.50;;;18.90;;
66741;SDS011;53654;54.152;19.432;2023-09-19T03:21:22;20.50;;;18.90;;
66741;SDS011;53654;54.152;19.432;2023-09-19T03:23:52;21.00;;;19.30;;
66741;SDS011;53654;54.152;19.432;2023-09-19T03:26:20;20.20;;;18.60;;
66741;SDS011;53654;54.152;19.432;2023-09-19T03:28:48;21.20;;;19.40;;
66741;SDS011;53654;54.152;19.432;2023-09-19T03:31:17;20.30;;;18.70;;
66741;SDS011;53654;54.152;19.432;2023-09-19T03:33:46;20.30;;;18.70;;
66741;SDS011;53654;54.152;19.432;2023-09-19T03:36:14;20.50;;;18.80;;
66741;SDS011;53654;54.152;19.432;2023-09-19T03:38:43;20.80;;;19.10;;
66741;SDS011;53654;54.152;19.432;2023-09-19T03:41:11;21.00;;;19.40;;
66741;SDS011;53654;54.152;19.432;2023-09-19T03:43:42;20.70;;;19.00;;
66741;SDS011;53654;54.152;19.432;2023-09-19T03:46:10;20.60;;;18.90;;
66741;SDS011;53654;54.152;19.432;2023-09-19T03:48:40;20.80;;;19.00;;
66741;SDS011;53654;54.152;19.432;2023-09-19T03:51:09;21.90;;;20.10;;
66741;SDS011;53654;54.152;19.432;2023-09-19T03:53:39;21.40;;;19.50;;
66741;SDS011;53654;54.152;19.432;2023-09-19T03:56:07;21.20;;;19.50;;
66741;SDS011;53654;54.152;19.432;2023-09-19T03:58:36;20.50;;;18.80;;
66741;SDS011;53654;54.152;19.432;2023-09-19T04:01:07;21.70;;;20.10;;
66741;SDS011;53654;54.152;19.432;2023-09-19T04:03:35;20.90;;;19.30;;
66741;SDS011;53654;54.152;19.432;2023-09-19T04:06:14;21.50;;;19.60;;
66741;SDS011;53654;54.152;19.432;2023-09-19T04:08:43;21.50;;;19.80;;
66741;SDS011;53654;54.152;19.432;2023-09-19T04:11:12;21.10;;;19.30;;
66741;SDS011;53654;54.152;19.432;2023-09-19T04:13:40;21.60;;;20.00;;
66741;SDS011;53654;54.152;19.432;2023-09-19T04:16:09;20.90;;;19.20;;
66741;SDS011;53654;54.152;19.432;2023-09-19T04:18:38;21.40;;;19.60;;
66741;SDS011;53654;54.152;19.432;2023-09-19T04:21:08;21.80;;;20.20;;
66741;SDS011;53654;54.152;19.432;2023-09-19T04:23:37;21.10;;;19.40;;
66741;SDS011;53654;54.152;19.432;2023-09-19T04:26:05;21.20;;;19.50;;
66741;SDS011;53654;54.152;19.432;2023-09-19T04:28:35;22.60;;;20.70;;
66741;SDS011;53654;54.152;19.432;2023-09-19T04:31:06;22.20;;;20.40;;
66741;SDS011;53654;54.152;19.432;2023-09-19T04:33:36;22.40;;;20.50;;
66741;SDS011;53654;54.152;19.432;2023-09-19T04:36:05;23.10;;;21.10;;
66741;SDS011;53654;54.152;19.432;2023-09-19T04:38:55;25.30;;;23.00;;
66741;SDS011;53654;54.152;19.432;2023-09-19T04:41:23;25.80;;;23.60;;
66741;SDS011;53654;54.152;19.432;2023-09-19T04:43:52;27.20;;;24.90;;
66741;SDS011;53654;54.152;19.432;2023-09-19T04:46:20;25.90;;;23.60;;
66741;SDS011;53654;54.152;19.432;2023-09-19T04:48:49;27.60;;;25.30;;
66741;SDS011;53654;54.152;19.432;2023-09-19T04:51:17;26.90;;;24.70;;
66741;SDS011;53654;54.152;19.432;2023-09-19T04:53:46;27.50;;;25.20;;
66741;SDS011;53654;54.152;19.432;2023-09-19T04:56:15;28.70;;;26.30;;
66741;SDS011;53654;54.152;19.432;2023-09-19T04:58:43;28.70;;;26.40;;
66741;SDS011;53654;54.152;19.432;2023-09-19T05:01:12;29.30;;;26.90;;
66741;SDS011;53654;54.152;19.432;2023-09-19T05:03:43;29.60;;;27.10;;
66741;SDS011;53654;54.152;19.432;2023-09-19T05:06:12;30.10;;;27.60;;
66741;SDS011;53654;54.152;19.432;2023-09-19T05:08:41;29.60;;;27.20;;
66741;SDS011;53654;54.152;19.432;2023-09-19T05:11:09;29.80;;;27.40;;
66741;SDS011;53654;54.152;19.432;2023-09-19T05:13:37;30.10;;;27.70;;
66741;SDS011;53654;54.152;19.432;2023-09-19T05:16:06;30.80;;;28.30;;
66741;SDS011;53654;54.152;19.432;2023-09-19T05:18:38;31.40;;;28.90;;
66741;SDS011;53654;54.152;19.432;2023-09-19T05:21:06;32.30;;;29.60;;
66741;SDS011;53654;54.152;19.432;2023-09-19T05:23:35;32.80;;;30.20;;
66741;SDS011;53654;54.152;19.432;2023-09-19T05:26:05;33.00;;;30.20;;
66741;SDS011;53654;54.152;19.432;2023-09-19T05:28:33;32.80;;;30.20;;
66741;SDS011;53654;54.152;19.432;2023-09-19T05:31:02;34.70;;;31.80;;
66741;SDS011;53654;54.152;19.432;2023-09-19T05:33:31;33.70;;;31.00;;
66741;SDS011;53654;54.152;19.432;2023-09-19T05:36:00;34.80;;;32.00;;
66741;SDS011;53654;54.152;19.432;2023-09-19T05:38:28;34.80;;;31.90;;
66741;SDS011;53654;54.152;19.432;2023-09-19T05:40:56;36.20;;;33.20;;
66741;SDS011;53654;54.152;19.432;2023-09-19T05:43:24;35.00;;;32.10;;
66741;SDS011;53654;54.152;19.432;2023-09-19T05:45:52;35.80;;;32.80;;
66741;SDS011;53654;54.152;19.432;2023-09-19T05:48:21;36.30;;;33.30;;
66741;SDS011;53654;54.152;19.432;2023-09-19T05:50:49;36.80;;;33.80;;
66741;SDS011;53654;54.152;19.432;2023-09-19T05:53:17;37.70;;;34.40;;
66741;SDS011;53654;54.152;19.432;2023-09-19T05:55:46;36.90;;;33.80;;
66741;SDS011;53654;54.152;19.432;2023-09-19T05:58:14;36.60;;;33.40;;
66741;SDS011;53654;54.152;19.432;2023-09-19T06:00:45;36.40;;;33.40;;
66741;SDS011;53654;54.152;19.432;2023-09-19T06:03:16;36.20;;;33.20;;
66741;SDS011;53654;54.152;19.432;2023-09-19T06:05:45;36.50;;;33.30;;
66741;SDS011;53654;54.152;19.432;2023-09-19T06:08:17;36.90;;;33.70;;
66741;SDS011;53654;54.152;19.432;2023-09-19T06:10:46;36.70;;;33.70;;
66741;SDS011;53654;54.152;19.432;2023-09-19T06:13:14;37.90;;;34.80;;
66741;SDS011;53654;54.152;19.432;2023-09-19T06:15:43;37.70;;;34.60;;
66741;SDS011;53654;54.152;19.432;2023-09-19T06:18:11;38.70;;;35.40;;
66741;SDS011;53654;54.152;19.432;2023-09-19T06:20:47;38.30;;;35.00;;
66741;SDS011;53654;54.152;19.432;2023-09-19T06:23:20;38.50;;;35.20;;
66741;SDS011;53654;54.152;19.432;2023-09-19T06:25:49;39.60;;;36.30;;
66741;SDS011;53654;54.152;19.432;2023-09-19T06:28:17;39.70;;;36.20;;
66741;SDS011;53654;54.152;19.432;2023-09-19T06:30:47;40.40;;;37.10;;
66741;SDS011;53654;54.152;19.432;2023-09-19T06:33:15;40.60;;;37.20;;
66741;SDS011;53654;54.152;19.432;2023-09-19T06:35:46;40.50;;;37.10;;
66741;SDS011;53654;54.152;19.432;2023-09-19T06:38:14;39.90;;;36.50;;
66741;SDS011;53654;54.152;19.432;2023-09-19T06:40:43;39.20;;;36.00;;
66741;SDS011;53654;54.152;19.432;2023-09-19T06:43:11;36.70;;;33.70;;
66741;SDS011;53654;54.152;19.432;2023-09-19T06:45:40;34.80;;;32.00;;
66741;SDS011;53654;54.152;19.432;2023-09-19T06:48:08;36.60;;;33.50;;
66741;SDS011;53654;54.152;19.432;2023-09-19T06:50:38;35.70;;;32.70;;
66741;SDS011;53654;54.152;19.432;2023-09-19T06:53:06;35.10;;;32.30;;
66741;SDS011;53654;54.152;19.432;2023-09-19T06:55:35;34.90;;;32.10;;
66741;SDS011;53654;54.152;19.432;2023-09-19T06:58:03;32.20;;;29.60;;
66741;SDS011;53654;54.152;19.432;2023-09-19T07:00:34;31.90;;;29.30;;
66741;SDS011;53654;54.152;19.432;2023-09-19T07:03:07;32.60;;;30.00;;
66741;SDS011;53654;54.152;19.432;2023-09-19T07:05:40;32.80;;;30.20;;
66741;SDS011;53654;54.152;19.432;2023-09-19T07:08:09;31.80;;;29.20;;
66741;SDS011;53654;54.152;19.432;2023-09-19T07:10:41;31.80;;;29.30;;
66741;SDS011;53654;54.152;19.432;2023-09-19T07:13:17;31.30;;;28.80;;
66741;SDS011;53654;54.152;19.432;2023-09-19T07:15:45;30.30;;;27.90;;
66741;SDS011;53654;54.152;19.432;2023-09-19T07:18:18;30.60;;;28.10;;
66741;SDS011;53654;54.152;19.432;2023-09-19T07:20:48;30.70;;;28.30;;
66741;SDS011;53654;54.152;19.432;2023-09-19T07:23:18;29.60;;;27.20;;
66741;SDS011;53654;54.152;19.432;2023-09-19T07:25:49;29.60;;;27.30;;
66741;SDS011;53654;54.152;19.432;2023-09-19T07:28:18;28.00;;;25.70;;
66741;SDS011;53654;54.152;19.432;2023-09-19T07:30:47;28.00;;;25.70;;
66741;SDS011;53654;54.152;19.432;2023-09-19T07:33:15;26.80;;;24.60;;
66741;SDS011;53654;54.152;19.432;2023-09-19T07:35:46;24.70;;;22.80;;
66741;SDS011;53654;54.152;19.432;2023-09-19T07:38:15;24.40;;;22.40;;
66741;SDS011;53654;54.152;19.432;2023-09-19T07:40:44;20.60;;;18.90;;
66741;SDS011;53654;54.152;19.432;2023-09-19T07:43:12;18.60;;;17.10;;
66741;SDS011;53654;54.152;19.432;2023-09-19T07:45:40;17.30;;;15.90;;
66741;SDS011;53654;54.152;19.432;2023-09-19T07:48:09;16.30;;;14.90;;
66741;SDS011;53654;54.152;19.432;2023-09-19T07:51:02;16.30;;;14.60;;
66741;SDS011;53654;54.152;19.432;2023-09-19T07:53:31;14.20;;;12.90;;
66741;SDS011;53654;54.152;19.432;2023-09-19T07:56:04;16.20;;;14.70;;
66741;SDS011;53654;54.152;19.432;2023-09-19T07:58:33;13.00;;;11.90;;
66741;SDS011;53654;54.152;19.432;2023-09-19T08:01:06;12.80;;;11.70;;
66741;SDS011;53654;54.152;19.432;2023-09-19T08:03:36;12.60;;;11.60;;
66741;SDS011;53654;54.152;19.432;2023-09-19T08:06:10;13.20;;;11.90;;
66741;SDS011;53654;54.152;19.432;2023-09-19T08:08:38;12.70;;;11.50;;
66741;SDS011;53654;54.152;19.432;2023-09-19T08:11:06;12.50;;;11.30;;
66741;SDS011;53654;54.152;19.432;2023-09-19T08:13:49;12.40;;;11.30;;
66741;SDS011;53654;54.152;19.432;2023-09-19T08:16:17;12.20;;;11.20;;
66741;SDS011;53654;54.152;19.432;2023-09-19T08:18:48;12.40;;;11.30;;
66741;SDS011;53654;54.152;19.432;2023-09-19T08:21:22;11.40;;;10.40;;
66741;SDS011;53654;54.152;19.432;2023-09-19T08:23:52;10.80;;;9.80;;
66741;SDS011;53654;54.152;19.432;2023-09-19T08:26:20;10.10;;;9.20;;
66741;SDS011;53654;54.152;19.432;2023-09-19T08:28:49;9.10;;;8.20;;
66741;SDS011;53654;54.152;19.432;2023-09-19T08:31:19;7.40;;;6.70;;
66741;SDS011;53654;54.152;19.432;2023-09-19T08:33:47;7.70;;;7.00;;
66741;SDS011;53654;54.152;19.432;2023-09-19T08:36:17;7.40;;;6.70;;
66741;SDS011;53654;54.152;19.432;2023-09-19T08:38:45;7.40;;;6.70;;
66741;SDS011;53654;54.152;19.432;2023-09-19T08:41:13;7.00;;;6.30;;
66741;SDS011;53654;54.152;19.432;2023-09-19T08:43:41;6.90;;;6.20;;
66741;SDS011;53654;54.152;19.432;2023-09-19T08:46:11;7.20;;;6.50;;
66741;SDS011;53654;54.152;19.432;2023-09-19T08:48:56;7.30;;;6.70;;
66741;SDS011;53654;54.152;19.432;2023-09-19T08:51:33;7.50;;;6.70;;
66741;SDS011;53654;54.152;19.432;2023-09-19T08:56:34;7.80;;;7.10;;
66741;SDS011;53654;54.152;19.432;2023-09-19T08:59:07;7.80;;;7.10;;
66741;SDS011;53654;54.152;19.432;2023-09-19T09:01:41;7.40;;;6.70;;
66741;SDS011;53654;54.152;19.432;2023-09-19T09:04:10;7.30;;;6.70;;
66741;SDS011;53654;54.152;19.432;2023-09-19T09:06:41;7.10;;;6.50;;
66741;SDS011;53654;54.152;19.432;2023-09-19T09:09:11;7.70;;;6.90;;
66741;SDS011;53654;54.152;19.432;2023-09-19T09:11:40;7.10;;;6.30;;
66741;SDS011;53654;54.152;19.432;2023-09-19T09:14:08;7.80;;;6.30;;
66741;SDS011;53654;54.152;19.432;2023-09-19T09:16:37;7.20;;;6.50;;
66741;SDS011;53654;54.152;19.432;2023-09-19T09:19:06;7.50;;;6.80;;
66741;SDS011;53654;54.152;19.432;2023-09-19T09:21:34;7.40;;;6.70;;
66741;SDS011;53654;54.152;19.432;2023-09-19T09:26:58;7.50;;;6.90;;
66741;SDS011;53654;54.152;19.432;2023-09-19T09:29:44;8.60;;;7.80;;
66741;SDS011;53654;54.152;19.432;2023-09-19T09:34:53;7.20;;;6.40;;
66741;SDS011;53654;54.152;19.432;2023-09-19T09:37:28;7.60;;;6.90;;
66741;SDS011;53654;54.152;19.432;2023-09-19T09:39:59;8.00;;;6.90;;
66741;SDS011;53654;54.152;19.432;2023-09-19T09:42:44;7.20;;;6.40;;
66741;SDS011;53654;54.152;19.432;2023-09-19T09:50:28;7.20;;;5.80;;
66741;SDS011;53654;54.152;19.432;2023-09-19T09:53:28;6.70;;;5.80;;
66741;SDS011;53654;54.152;19.432;2023-09-19T09:58:35;6.80;;;6.10;;
66741;SDS011;53654;54.152;19.432;2023-09-19T10:01:05;6.90;;;5.80;;
66741;SDS011;53654;54.152;19.432;2023-09-19T10:03:39;8.00;;;6.60;;
66741;SDS011;53654;54.152;19.432;2023-09-19T10:06:12;6.80;;;6.10;;
66741;SDS011;53654;54.152;19.432;2023-09-19T10:09:07;7.00;;;6.30;;
66741;SDS011;53654;54.152;19.432;2023-09-19T10:11:44;8.40;;;6.80;;
66741;SDS011;53654;54.152;19.432;2023-09-19T10:14:17;7.10;;;6.50;;
66741;SDS011;53654;54.152;19.432;2023-09-19T10:16:51;6.60;;;6.00;;
66741;SDS011;53654;54.152;19.432;2023-09-19T10:19:28;6.90;;;6.20;;
66741;SDS011;53654;54.152;19.432;2023-09-19T10:22:01;6.60;;;5.90;;
66741;SDS011;53654;54.152;19.432;2023-09-19T10:24:30;6.40;;;5.80;;
66741;SDS011;53654;54.152;19.432;2023-09-19T10:27:05;6.50;;;5.90;;
66741;SDS011;53654;54.152;19.432;2023-09-19T10:29:37;6.20;;;5.60;;
66741;SDS011;53654;54.152;19.432;2023-09-19T10:32:07;6.10;;;5.50;;
66741;SDS011;53654;54.152;19.432;2023-09-19T10:34:36;5.90;;;5.30;;
66741;SDS011;53654;54.152;19.432;2023-09-19T10:37:09;6.20;;;5.70;;
66741;SDS011;53654;54.152;19.432;2023-09-19T10:39:40;5.70;;;5.20;;
66741;SDS011;53654;54.152;19.432;2023-09-19T10:42:14;6.30;;;5.70;;
66741;SDS011;53654;54.152;19.432;2023-09-19T10:44:50;6.20;;;5.50;;
66741;SDS011;53654;54.152;19.432;2023-09-19T10:47:21;6.40;;;5.10;;
66741;SDS011;53654;54.152;19.432;2023-09-19T10:49:52;6.00;;;5.40;;
66741;SDS011;53654;54.152;19.432;2023-09-19T10:52:23;7.40;;;5.50;;
66741;SDS011;53654;54.152;19.432;2023-09-19T10:54:55;5.90;;;5.40;;
66741;SDS011;53654;54.152;19.432;2023-09-19T10:57:26;6.30;;;5.60;;
66741;SDS011;53654;54.152;19.432;2023-09-19T11:00:05;6.50;;;5.30;;
66741;SDS011;53654;54.152;19.432;2023-09-19T11:08:51;6.30;;;5.50;;
66741;SDS011;53654;54.152;19.432;2023-09-19T11:30:36;7.40;;;4.40;;
66741;SDS011;53654;54.152;19.432;2023-09-19T11:33:21;5.30;;;4.80;;
66741;SDS011;53654;54.152;19.432;2023-09-19T11:43:54;4.70;;;4.30;;
66741;SDS011;53654;54.152;19.432;2023-09-19T11:49:19;5.50;;;4.40;;
66741;SDS011;53654;54.152;19.432;2023-09-19T11:52:01;5.60;;;4.20;;
66741;SDS011;53654;54.152;19.432;2023-09-19T11:54:33;4.40;;;4.00;;
66741;SDS011;53654;54.152;19.432;2023-09-19T11:57:04;5.90;;;4.20;;
66741;SDS011;53654;54.152;19.432;2023-09-19T11:59:37;4.90;;;4.30;;
66741;SDS011;53654;54.152;19.432;2023-09-19T12:02:07;4.60;;;3.80;;
66741;SDS011;53654;54.152;19.432;2023-09-19T12:04:40;5.00;;;4.00;;
66741;SDS011;53654;54.152;19.432;2023-09-19T12:07:12;4.40;;;3.60;;
66741;SDS011;53654;54.152;19.432;2023-09-19T12:09:45;4.50;;;4.60;;
66741;SDS011;53654;54.152;19.432;2023-09-19T12:12:19;4.50;;;3.60;;
66741;SDS011;53654;54.152;19.432;2023-09-19T12:14:48;4.90;;;3.80;;
66741;SDS011;53654;54.152;19.432;2023-09-19T12:17:18;4.40;;;4.00;;
66741;SDS011;53654;54.152;19.432;2023-09-19T12:19:49;5.70;;;4.00;;
66741;SDS011;53654;54.152;19.432;2023-09-19T12:22:22;4.50;;;4.10;;
66741;SDS011;53654;54.152;19.432;2023-09-19T12:24:50;4.20;;;3.80;;
66741;SDS011;53654;54.152;19.432;2023-09-19T12:27:22;4.10;;;3.80;;
66741;SDS011;53654;54.152;19.432;2023-09-19T12:29:53;4.70;;;3.70;;
66741;SDS011;53654;54.152;19.432;2023-09-19T12:32:36;3.90;;;3.40;;
66741;SDS011;53654;54.152;19.432;2023-09-19T12:35:08;7.30;;;4.90;;
66741;SDS011;53654;54.152;19.432;2023-09-19T12:37:43;4.50;;;3.40;;
66741;SDS011;53654;54.152;19.432;2023-09-19T12:40:21;3.60;;;3.40;;
66741;SDS011;53654;54.152;19.432;2023-09-19T12:42:50;3.70;;;3.40;;
66741;SDS011;53654;54.152;19.432;2023-09-19T12:45:21;4.30;;;3.30;;
66741;SDS011;53654;54.152;19.432;2023-09-19T12:51:05;5.10;;;3.70;;
66741;SDS011;53654;54.152;19.432;2023-09-19T12:53:39;4.10;;;3.10;;
66741;SDS011;53654;54.152;19.432;2023-09-19T12:56:13;5.70;;;3.10;;
66741;SDS011;53654;54.152;19.432;2023-09-19T12:58:54;3.40;;;3.10;;
66741;SDS011;53654;54.152;19.432;2023-09-19T13:01:23;4.10;;;3.50;;
66741;SDS011;53654;54.152;19.432;2023-09-19T13:06:51;3.10;;;2.80;;
66741;SDS011;53654;54.152;19.432;2023-09-19T13:09:20;2.60;;;2.40;;
66741;SDS011;53654;54.152;19.432;2023-09-19T13:11:52;3.70;;;2.50;;
66741;SDS011;53654;54.152;19.432;2023-09-19T13:19:38;4.10;;;2.50;;
66741;SDS011;53654;54.152;19.432;2023-09-19T13:25:07;2.60;;;2.40;;
66741;SDS011;53654;54.152;19.432;2023-09-19T13:27:48;3.60;;;2.60;;
66741;SDS011;53654;54.152;19.432;2023-09-19T13:30:23;4.20;;;2.40;;
66741;SDS011;53654;54.152;19.432;2023-09-19T13:33:04;4.20;;;2.40;;
66741;SDS011;53654;54.152;19.432;2023-09-19T13:35:38;3.30;;;2.20;;
66741;SDS011;53654;54.152;19.432;2023-09-19T13:38:08;3.00;;;2.50;;
66741;SDS011;53654;54.152;19.432;2023-09-19T13:40:40;5.10;;;2.40;;
66741;SDS011;53654;54.152;19.432;2023-09-19T13:43:10;4.60;;;2.40;;
66741;SDS011;53654;54.152;19.432;2023-09-19T13:45:39;4.90;;;2.30;;
66741;SDS011;53654;54.152;19.432;2023-09-19T13:48:10;2.70;;;2.20;;
66741;SDS011;53654;54.152;19.432;2023-09-19T13:50:40;4.50;;;2.40;;
66741;SDS011;53654;54.152;19.432;2023-09-19T13:53:11;3.90;;;2.30;;
66741;SDS011;53654;54.152;19.432;2023-09-19T13:55:39;3.60;;;2.30;;
66741;SDS011;53654;54.152;19.432;2023-09-19T13:58:09;4.00;;;2.30;;
66741;SDS011;53654;54.152;19.432;2023-09-19T14:00:38;3.10;;;2.30;;
66741;SDS011;53654;54.152;19.432;2023-09-19T14:03:07;2.60;;;2.20;;
66741;SDS011;53654;54.152;19.432;2023-09-19T14:05:37;4.80;;;2.50;;
66741;SDS011;53654;54.152;19.432;2023-09-19T14:08:06;3.40;;;2.60;;
66741;SDS011;53654;54.152;19.432;2023-09-19T14:10:34;3.10;;;2.30;;
66741;SDS011;53654;54.152;19.432;2023-09-19T14:13:03;3.80;;;2.50;;
66741;SDS011;53654;54.152;19.432;2023-09-19T14:15:32;2.60;;;2.40;;
66741;SDS011;53654;54.152;19.432;2023-09-19T14:18:02;2.80;;;2.30;;
66741;SDS011;53654;54.152;19.432;2023-09-19T14:20:31;3.20;;;2.70;;
66741;SDS011;53654;54.152;19.432;2023-09-19T14:22:59;2.80;;;2.30;;
66741;SDS011;53654;54.152;19.432;2023-09-19T14:25:28;3.40;;;2.30;;
66741;SDS011;53654;54.152;19.432;2023-09-19T14:27:58;4.10;;;2.30;;
66741;SDS011;53654;54.152;19.432;2023-09-19T14:30:26;4.00;;;2.30;;
66741;SDS011;53654;54.152;19.432;2023-09-19T14:32:55;3.10;;;2.50;;
66741;SDS011;53654;54.152;19.432;2023-09-19T14:35:26;3.00;;;2.30;;
66741;SDS011;53654;54.152;19.432;2023-09-19T14:37:54;3.30;;;2.30;;
66741;SDS011;53654;54.152;19.432;2023-09-19T14:40:23;2.80;;;2.20;;
66741;SDS011;53654;54.152;19.432;2023-09-19T14:42:51;3.60;;;2.40;;
66741;SDS011;53654;54.152;19.432;2023-09-19T14:45:19;3.00;;;2.20;;
66741;SDS011;53654;54.152;19.432;2023-09-19T14:47:48;2.90;;;2.30;;
66741;SDS011;53654;54.152;19.432;2023-09-19T14:50:20;2.40;;;2.00;;
66741;SDS011;53654;54.152;19.432;2023-09-19T14:52:50;3.10;;;2.10;;
66741;SDS011;53654;54.152;19.432;2023-09-19T14:55:20;3.00;;;2.00;;
66741;SDS011;53654;54.152;19.432;2023-09-19T14:57:50;2.70;;;1.90;;
66741;SDS011;53654;54.152;19.432;2023-09-19T15:00:19;2.60;;;2.00;;
66741;SDS011;53654;54.152;19.432;2023-09-19T15:02:51;3.60;;;3.00;;
66741;SDS011;53654;54.152;19.432;2023-09-19T15:05:20;2.10;;;1.90;;
66741;SDS011;53654;54.152;19.432;2023-09-19T15:07:49;2.60;;;2.20;;
66741;SDS011;53654;54.152;19.432;2023-09-19T15:10:17;2.50;;;2.20;;
66741;SDS011;53654;54.152;19.432;2023-09-19T15:12:46;2.20;;;2.00;;
66741;SDS011;53654;54.152;19.432;2023-09-19T15:15:14;2.80;;;2.30;;
66741;SDS011;53654;54.152;19.432;2023-09-19T15:17:42;2.50;;;2.30;;
66741;SDS011;53654;54.152;19.432;2023-09-19T15:20:11;4.60;;;2.40;;
66741;SDS011;53654;54.152;19.432;2023-09-19T15:22:42;2.80;;;2.30;;
66741;SDS011;53654;54.152;19.432;2023-09-19T15:25:11;22.20;;;20.30;;
66741;SDS011;53654;54.152;19.432;2023-09-19T15:27:39;5.40;;;4.20;;
66741;SDS011;53654;54.152;19.432;2023-09-19T15:30:09;3.80;;;2.40;;
66741;SDS011;53654;54.152;19.432;2023-09-19T15:32:38;3.70;;;2.60;;
66741;SDS011;53654;54.152;19.432;2023-09-19T15:35:07;3.10;;;2.50;;
66741;SDS011;53654;54.152;19.432;2023-09-19T15:37:39;4.30;;;2.80;;
66741;SDS011;53654;54.152;19.432;2023-09-19T15:40:08;4.00;;;2.80;;
66741;SDS011;53654;54.152;19.432;2023-09-19T15:42:38;3.50;;;2.70;;
66741;SDS011;53654;54.152;19.432;2023-09-19T15:45:07;3.00;;;2.60;;
66741;SDS011;53654;54.152;19.432;2023-09-19T15:47:37;3.10;;;2.50;;
66741;SDS011;53654;54.152;19.432;2023-09-19T15:50:05;2.70;;;2.40;;
66741;SDS011;53654;54.152;19.432;2023-09-19T15:52:37;4.40;;;2.60;;
66741;SDS011;53654;54.152;19.432;2023-09-19T15:55:05;3.80;;;2.80;;
66741;SDS011;53654;54.152;19.432;2023-09-19T15:57:38;3.90;;;2.80;;
66741;SDS011;53654;54.152;19.432;2023-09-19T16:00:06;3.80;;;2.80;;
66741;SDS011;53654;54.152;19.432;2023-09-19T16:02:41;3.20;;;2.60;;
66741;SDS011;53654;54.152;19.432;2023-09-19T16:05:10;3.00;;;2.60;;
66741;SDS011;53654;54.152;19.432;2023-09-19T16:07:40;4.80;;;3.10;;
66741;SDS011;53654;54.152;19.432;2023-09-19T16:10:08;4.30;;;3.00;;